Time;durP1;ratioP1;P1;durP2;ratioP2;P2;SDS_P1;SDS_P2;PMS_P1;PMS_P2;Temp;Humidity;BMP_temperature;BMP_pressure;BME280_temperature;BME280_humidity;BME280_pressure;Samples;Min_cycle;Max_cycle;Signal;HPM_P1;HPM_P2
2024/01/18 00:05:03;;;;;;;9.73;1.73;;;;;;;14.13;84.54;99345.13;10380473;28;96738;-81
2024/01/18 00:10:07;;;;;;;;;;;;;;;14.18;84.29;99341.22;10381363;28;96654;-81
2024/01/18 00:15:11;;;;;;;8.65;2.00;;;;;;;14.21;84.49;99351.56;10385328;22;97344;-80
2024/01/18 00:20:17;;;;;;;7.57;2.10;;;;;;;14.32;83.61;99349.06;10380497;28;97138;-80
2024/01/18 00:25:20;;;;;;;8.45;1.73;;;;;;;14.40;83.80;99346.72;10380079;28;96694;-80
2024/01/18 00:30:24;;;;;;;11.65;1.58;;;;;;;14.39;83.64;99360.06;10380781;28;96739;-80
2024/01/18 00:35:29;;;;;;;6.47;1.15;;;;;;;14.39;83.24;99347.69;10380737;28;97203;-80
2024/01/18 00:40:33;;;;;;;9.95;1.80;;;;;;;14.45;82.38;99354.34;10379965;28;97218;-79
2024/01/18 00:45:37;;;;;;;6.35;1.42;;;;;;;14.48;82.53;99344.41;10390359;28;96643;-79
2024/01/18 00:50:42;;;;;;;11.65;1.80;;;;;;;14.42;82.43;99355.41;10419920;28;96852;-80
2024/01/18 00:55:45;;;;;;;;;;;;;;;14.40;82.29;99354.66;10421677;28;97285;-79
2024/01/18 01:00:48;;;;;;;9.75;2.28;;;;;;;14.39;82.49;99354.75;10421086;28;96661;-79
2024/01/18 01:05:53;;;;;;;6.20;2.25;;;;;;;14.44;80.91;99352.63;10406063;27;96728;-80
2024/01/18 01:10:57;;;;;;;;;;;;;;;14.25;82.62;99337.19;10379052;28;97097;-80
2024/01/18 01:16:00;;;;;;;5.47;1.52;;;;;;;14.18;83.86;99322.69;10378369;28;96677;-80
2024/01/18 01:21:06;;;;;;;8.35;1.75;;;;;;;14.18;83.15;99332.41;10378630;28;96817;-81
2024/01/18 01:26:10;;;;;;;6.38;1.60;;;;;;;14.27;83.55;99332.66;10378602;28;96612;-81
2024/01/18 01:31:13;;;;;;;7.75;2.10;;;;;;;14.26;83.53;99335.41;10378021;28;97433;-81
2024/01/18 01:36:18;;;;;;;7.45;1.60;;;;;;;14.28;83.62;99339.63;10386036;28;96712;-81
2024/01/18 01:41:22;;;;;;;8.13;1.83;;;;;;;14.25;84.27;99354.88;10418394;28;96651;-81
2024/01/18 01:46:26;;;;;;;11.35;1.80;;;;;;;14.23;84.46;99351.50;10382000;28;97437;-81
2024/01/18 01:51:35;;;;;;;10.93;1.90;;;;;;;14.23;83.89;99348.84;10377356;28;96721;-80
2024/01/18 01:56:39;;;;;;;8.38;1.80;;;;;;;14.25;83.90;99339.00;10376828;28;96703;-80
2024/01/18 02:01:44;;;;;;;8.38;1.75;;;;;;;14.35;83.15;99359.41;10376308;28;96767;-80
2024/01/18 02:06:52;;;;;;;11.30;1.77;;;;;;;14.35;83.05;99353.31;10376525;28;96778;-80
2024/01/18 02:11:55;;;;;;;10.90;1.40;;;;;;;14.33;83.13;99356.03;10377411;28;96727;-80
2024/01/18 02:16:59;;;;;;;6.93;1.20;;;;;;;14.48;82.26;99370.88;10376479;28;96705;-80
2024/01/18 02:22:08;;;;;;;8.77;1.40;;;;;;;14.41;82.76;99366.09;10376232;28;96611;-80
2024/01/18 02:27:13;;;;;;;5.13;1.73;;;;;;;14.36;82.06;99377.00;10384607;28;96683;-80
2024/01/18 02:32:18;;;;;;;8.07;1.52;;;;;;;14.42;81.29;99389.81;10416902;28;97566;-79
2024/01/18 02:37:22;;;;;;;6.70;1.58;;;;;;;14.44;81.16;99398.50;10383912;28;96705;-80
2024/01/18 02:42:27;;;;;;;6.32;1.05;;;;;;;14.48;80.96;99402.63;10376061;28;97200;-80
2024/01/18 02:47:31;;;;;;;8.10;1.75;;;;;;;14.40;81.02;99378.47;10410793;28;97883;-80
2024/01/18 02:52:37;;;;;;;8.57;1.60;;;;;;;14.28;81.73;99383.78;10417462;28;96591;-79
2024/01/18 02:57:42;;;;;;;10.40;1.20;;;;;;;14.31;81.50;99384.44;10416836;28;96629;-79
2024/01/18 03:02:47;;;;;;;4.78;1.25;;;;;;;14.39;80.20;99387.38;10406691;28;96771;-79
2024/01/18 03:07:50;;;;;;;7.53;1.53;;;;;;;14.45;80.10;99396.72;10388944;28;97210;-79
2024/01/18 03:12:55;;;;;;;5.00;1.13;;;;;;;14.41;79.86;99390.78;10375361;28;97147;-79
2024/01/18 03:17:58;;;;;;;;;;;;;;;14.31;80.06;99404.75;10375713;28;96698;-79
2024/01/18 03:23:02;;;;;;;10.95;1.75;;;;;;;14.36;79.26;99403.47;10373921;28;96782;-79
2024/01/18 03:28:07;;;;;;;12.00;1.58;;;;;;;14.37;78.50;99402.50;10375106;28;97018;-79
2024/01/18 03:33:10;;;;;;;7.07;1.27;;;;;;;14.34;78.36;99401.88;10381438;28;97752;-79
2024/01/18 03:38:14;;;;;;;8.00;1.80;;;;;;;14.38;78.71;99408.66;10412047;28;96690;-79
2024/01/18 03:43:19;;;;;;;5.63;1.42;;;;;;;14.38;79.18;99388.34;10380916;28;96717;-79
2024/01/18 03:48:22;;;;;;;;;;;;;;;14.31;80.70;99397.66;10381241;28;96867;-79
2024/01/18 03:53:25;;;;;;;7.53;1.55;;;;;;;14.26;80.81;99397.13;10399846;28;97110;-79
2024/01/18 03:58:32;;;;;;;6.97;1.15;;;;;;;14.20;82.80;99404.59;10410931;28;96753;-80
2024/01/18 04:03:36;;;;;;;9.38;2.83;;;;;;;14.04;85.87;99399.50;10381087;28;97139;-79
2024/01/18 04:08:40;;;;;;;7.80;1.53;;;;;;;14.00;86.31;99392.72;10381113;28;97210;-79
2024/01/18 04:13:45;;;;;;;9.25;1.40;;;;;;;13.98;86.80;99391.09;10379530;28;96746;-80
2024/01/18 04:18:48;;;;;;;2.45;1.33;;;;;;;13.90;88.72;99393.44;10379582;28;96666;-80
2024/01/18 04:23:52;;;;;;;9.57;1.27;;;;;;;13.95;88.23;99412.47;10379862;28;96649;-80
2024/01/18 04:28:57;;;;;;;6.33;1.13;;;;;;;13.99;87.83;99398.94;10381021;28;97086;-80
2024/01/18 04:34:00;;;;;;;;;;;;;;;13.99;87.57;99403.38;10380698;28;96885;-81
2024/01/18 04:39:05;;;;;;;5.10;1.38;;;;;;;14.03;87.11;99391.69;10380213;28;97049;-80
2024/01/18 04:44:10;;;;;;;;;;;;;;;14.07;85.73;99394.03;10395614;28;96779;-80
2024/01/18 04:49:14;;;;;;;6.95;2.25;;;;;;;14.09;85.27;99405.34;10421672;28;96980;-81
2024/01/18 04:54:17;;;;;;;7.97;1.27;;;;;;;14.12;84.67;99399.84;10420146;28;96695;-80
2024/01/18 04:59:22;;;;;;;4.80;1.92;;;;;;;14.13;84.07;99403.31;10381268;28;98082;-80
2024/01/18 05:04:26;;;;;;;5.90;1.20;;;;;;;14.18;83.80;99420.59;10377962;28;97312;-80
2024/01/18 05:09:29;;;;;;;11.07;1.83;;;;;;;14.11;83.11;99421.09;10378630;28;96755;-79
2024/01/18 05:14:35;;;;;;;11.63;1.92;;;;;;;14.18;83.14;99430.31;10378176;28;96955;-79
2024/01/18 05:19:38;;;;;;;5.15;1.50;;;;;;;14.20;82.25;99426.63;10378671;28;97858;-80
2024/01/18 05:24:42;;;;;;;6.38;1.67;;;;;;;14.20;82.54;99421.34;10377922;28;96885;-79
2024/01/18 05:29:48;;;;;;;5.63;1.83;;;;;;;14.22;82.51;99426.53;10378111;28;97091;-79
2024/01/18 05:34:52;;;;;;;4.38;1.48;;;;;;;14.19;82.91;99434.69;10391154;28;97280;-79
2024/01/18 05:39:56;;;;;;;10.00;1.53;;;;;;;13.99;85.93;99440.41;10420172;28;97072;-80
2024/01/18 05:45:01;;;;;;;8.38;1.42;;;;;;;13.86;88.08;99450.09;10418909;28;97301;-79
2024/01/18 05:50:06;;;;;;;11.40;1.48;;;;;;;13.82;89.23;99461.81;10419134;28;96570;-81
2024/01/18 05:55:10;;;;;;;3.40;1.00;;;;;;;13.78;89.86;99468.28;10376096;28;96848;-80
2024/01/18 06:00:16;;;;;;;6.60;1.40;;;;;;;13.74;90.59;99472.06;10377353;28;96649;-79
2024/01/18 06:05:20;;;;;;;8.38;1.25;;;;;;;13.66;91.36;99465.47;10368897;28;96710;-80
2024/01/18 06:10:23;;;;;;;8.52;1.48;;;;;;;13.70;90.95;99489.91;10363303;28;96649;-80
2024/01/18 06:15:30;;;;;;;9.07;2.15;;;;;;;13.57;92.64;99492.50;10376263;28;97411;-82
2024/01/18 06:20:34;;;;;;;3.42;1.10;;;;;;;13.57;93.83;99508.34;10376738;28;96610;-81
2024/01/18 06:25:37;;;;;;;5.22;1.50;;;;;;;13.50;93.28;99512.31;10376741;28;97257;-81
2024/01/18 06:30:44;;;;;;;4.47;0.77;;;;;;;13.48;93.68;99522.16;10377324;28;96859;-80
2024/01/18 06:35:48;;;;;;;3.70;1.15;;;;;;;13.48;92.91;99530.06;10375658;28;97228;-81
2024/01/18 06:40:52;;;;;;;7.75;1.40;;;;;;;13.42;93.63;99540.19;10376128;28;97270;-81
2024/01/18 06:45:57;;;;;;;4.38;1.02;;;;;;;13.42;94.12;99567.47;10413432;28;97040;-80
2024/01/18 06:51:00;;;;;;;4.53;0.75;;;;;;;13.35;95.40;99582.00;10396298;28;96757;-79
2024/01/18 06:56:10;;;;;;;5.95;0.88;;;;;;;13.32;95.38;99590.13;10375655;28;96612;-80
2024/01/18 07:01:15;;;;;;;4.22;1.05;;;;;;;13.32;95.22;99610.41;10400113;28;96627;-80
2024/01/18 07:06:18;;;;;;;;;;;;;;;13.27;95.60;99621.28;10355582;28;96780;-79
2024/01/18 07:11:22;;;;;;;5.80;1.50;;;;;;;13.23;96.17;99634.75;10383320;28;97424;-79
2024/01/18 07:16:27;;;;;;;1.45;0.63;;;;;;;13.17;96.18;99638.59;10392333;28;96644;-79
2024/01/18 07:21:31;;;;;;;1.75;0.60;;;;;;;13.20;96.16;99630.50;10425207;28;96800;-80
2024/01/18 07:26:35;;;;;;;3.78;0.60;;;;;;;13.22;95.70;99635.69;10416886;28;96730;-81
2024/01/18 07:31:41;;;;;;;0.47;0.40;;;;;;;13.21;94.62;99634.84;10382052;28;96724;-81
2024/01/18 07:36:50;;;;;;;0.70;0.28;;;;;;;13.25;93.71;99640.78;10381169;28;96711;-81
2024/01/18 07:41:54;;;;;;;1.87;0.70;;;;;;;13.22;93.73;99654.19;10381695;28;96732;-81
2024/01/18 07:47:00;;;;;;;1.67;0.40;;;;;;;13.27;93.08;99660.91;10381091;28;97008;-81
2024/01/18 07:52:05;;;;;;;0.90;0.30;;;;;;;13.32;93.03;99655.31;10381734;28;96706;-81
2024/01/18 07:57:10;;;;;;;2.03;0.50;;;;;;;13.28;93.44;99659.94;10366214;28;98380;-80
2024/01/18 08:02:17;;;;;;;2.47;0.47;;;;;;;13.24;94.07;99674.28;10378478;28;96807;-80
2024/01/18 08:07:21;;;;;;;2.42;0.50;;;;;;;13.16;94.30;99673.88;10366680;28;96896;-80
2024/01/18 08:12:25;;;;;;;1.33;0.50;;;;;;;13.13;95.36;99676.72;10381618;28;96526;-80
2024/01/18 08:17:30;;;;;;;1.00;0.40;;;;;;;13.24;94.70;99678.72;10379658;28;96965;-79
2024/01/18 08:22:33;;;;;;;;;;;;;;;13.41;94.09;99678.56;10381028;28;96978;-80
2024/01/18 08:27:37;;;;;;;2.53;0.63;;;;;;;13.50;92.99;99692.06;10415697;28;96818;-79
2024/01/18 08:32:41;;;;;;;2.10;0.35;;;;;;;13.58;92.59;99681.03;10382671;28;97505;-79
2024/01/18 08:37:47;;;;;;;2.63;0.57;;;;;;;13.64;92.31;99681.50;10379817;28;96653;-79
2024/01/18 08:42:51;;;;;;;2.58;0.52;;;;;;;13.55;93.06;99682.06;10380155;28;97144;-79
2024/01/18 08:47:56;;;;;;;0.65;0.30;;;;;;;13.53;93.39;99689.25;10378877;28;96707;-80
2024/01/18 08:52:59;;;;;;;3.17;1.25;;;;;;;13.53;93.94;99686.63;10378985;28;96747;-80
2024/01/18 08:58:03;;;;;;;3.65;1.27;;;;;;;13.59;94.58;99691.50;10379654;28;97526;-79
2024/01/18 09:03:08;;;;;;;2.60;1.05;;;;;;;13.85;93.66;99718.19;10379954;28;97053;-80
2024/01/18 09:08:11;;;;;;;;;;;;;;;13.79;93.20;99714.09;10379038;28;97077;-80
2024/01/18 09:13:15;;;;;;;2.70;0.57;;;;;;;14.04;92.56;99705.53;10378939;28;96711;-80
2024/01/18 09:18:24;;;;;;;1.05;0.45;;;;;;;14.19;92.03;99718.66;10377448;28;97422;-80
2024/01/18 09:23:28;;;;;;;2.00;0.40;;;;;;;14.36;91.73;99701.72;10378311;28;96625;-80
2024/01/18 09:28:31;;;;;;;5.93;0.90;;;;;;;14.44;91.90;99707.34;10376849;28;96690;-80
2024/01/18 09:33:37;;;;;;;3.90;0.55;;;;;;;14.79;90.90;99713.88;10397061;28;97395;-80
2024/01/18 09:38:41;;;;;;;1.38;0.40;;;;;;;15.01;90.03;99718.63;10419488;28;96651;-80
2024/01/18 09:43:46;;;;;;;4.63;0.60;;;;;;;14.79;89.29;99732.41;10419250;28;97146;-80
2024/01/18 09:48:54;;;;;;;3.45;0.52;;;;;;;14.57;89.36;99729.47;10382045;28;97041;-81
2024/01/18 09:53:57;;;;;;;3.17;0.80;;;;;;;14.47;88.12;99745.06;10419958;28;97459;-79
2024/01/18 09:59:04;;;;;;;3.60;0.88;;;;;;;14.53;89.17;99754.44;10383003;28;96650;-79
2024/01/18 10:04:12;;;;;;;3.10;0.60;;;;;;;14.32;89.64;99758.44;10377089;28;97179;-81
2024/01/18 10:09:15;;;;;;;2.60;0.90;;;;;;;14.16;90.76;99758.53;10370515;28;97148;-80
2024/01/18 10:14:40;;;;;;;3.17;0.77;;;;;;;13.90;92.08;99776.94;10377075;28;96672;-79
2024/01/18 10:19:45;;;;;;;0.77;0.30;;;;;;;13.86;92.49;99781.56;10376525;28;98045;-81
2024/01/18 10:24:49;;;;;;;;;;;;;;;13.99;93.34;99776.34;10376840;28;97090;-79
2024/01/18 10:29:54;;;;;;;1.85;0.63;;;;;;;14.18;91.98;99787.53;10376629;28;96650;-81
2024/01/18 10:34:59;;;;;;;3.25;1.02;;;;;;;14.20;92.57;99798.88;10376430;28;97300;-81
2024/01/18 10:40:10;;;;;;;5.72;0.80;;;;;;;14.20;91.79;99801.53;10376233;28;97268;-81
2024/01/18 10:45:13;;;;;;;3.95;0.80;;;;;;;14.25;91.86;99813.53;10376477;28;97374;-81
2024/01/18 10:50:19;;;;;;;2.83;0.73;;;;;;;14.27;91.80;99814.31;10375709;28;97150;-81
2024/01/18 10:55:23;;;;;;;3.53;1.17;;;;;;;14.22;92.27;99834.03;10375641;28;97401;-81
2024/01/18 11:00:26;;;;;;;2.92;0.90;;;;;;;14.21;92.45;99830.53;10372177;28;98159;-81
2024/01/18 11:05:32;;;;;;;1.55;0.68;;;;;;;14.40;91.49;99828.47;10350089;28;96729;-81
2024/01/18 11:10:36;;;;;;;4.55;0.80;;;;;;;14.49;91.46;99821.75;10368434;28;96706;-81
2024/01/18 11:15:43;;;;;;;2.87;1.10;;;;;;;14.45;91.39;99826.38;10375005;28;97007;-81
2024/01/18 11:26:23;;;;;;;1.20;0.75;;;;;;;14.55;90.98;99832.84;10413977;28;96702;-80
2024/01/18 11:31:49;;;;;;;2.83;0.88;;;;;;;14.57;90.98;99830.09;10402567;27;97041;-80
2024/01/18 11:37:12;;;;;;;3.33;0.80;;;;;;;14.72;90.20;99823.81;10371283;28;96658;-80
2024/01/18 11:42:18;;;;;;;1.90;0.80;;;;;;;14.83;90.20;99818.69;10387301;28;96717;-80
2024/01/18 11:47:23;;;;;;;4.07;1.10;;;;;;;15.09;89.60;99817.88;10411179;27;97536;-80
2024/01/18 11:52:28;;;;;;;5.65;1.15;;;;;;;15.16;89.60;99808.59;10376992;28;97178;-79
2024/01/18 11:57:33;;;;;;;2.55;1.00;;;;;;;15.32;88.99;99827.00;10412199;27;97150;-79
2024/01/18 12:02:36;;;;;;;6.63;1.08;;;;;;;15.37;89.35;99828.38;10412737;27;97975;-79
2024/01/18 12:07:43;;;;;;;4.82;1.23;;;;;;;15.52;88.35;99827.41;10394975;27;97041;-79
2024/01/18 12:12:48;;;;;;;5.45;1.00;;;;;;;15.50;88.45;99829.28;10408940;27;97139;-79
2024/01/18 12:17:56;;;;;;;4.32;1.10;;;;;;;15.46;87.34;99826.94;10411179;28;96632;-79
2024/01/18 12:23:02;;;;;;;3.47;1.00;;;;;;;15.56;87.14;99830.69;10396016;27;97654;-78
2024/01/18 12:28:07;;;;;;;4.28;1.10;;;;;;;15.77;86.06;99821.28;10369437;28;96703;-78
2024/01/18 12:33:11;;;;;;;3.15;1.20;;;;;;;15.76;85.35;99816.94;10366347;28;96617;-78
2024/01/18 12:38:15;;;;;;;3.15;0.80;;;;;;;15.76;83.81;99809.84;10341724;28;97209;-78
2024/01/18 12:43:23;;;;;;;3.20;1.30;;;;;;;15.79;84.32;99799.00;10351945;28;96693;-78
2024/01/18 12:48:27;;;;;;;4.72;1.30;;;;;;;15.99;83.58;99807.41;10297186;22;96931;-78
2024/01/18 12:53:31;;;;;;;4.10;1.13;;;;;;;16.03;83.76;99806.25;10259700;28;97119;-78
2024/01/18 12:58:36;;;;;;;3.92;0.90;;;;;;;16.01;84.16;99810.81;10287346;28;96972;-78
2024/01/18 13:03:39;;;;;;;2.80;1.10;;;;;;;16.04;84.82;99808.78;10281497;28;96649;-79
2024/01/18 13:08:43;;;;;;;5.90;1.38;;;;;;;16.18;84.81;99791.91;10218811;28;96678;-79
2024/01/18 13:13:48;;;;;;;4.53;1.40;;;;;;;16.19;84.40;99791.78;10245391;28;96983;-80
2024/01/18 13:18:52;;;;;;;6.28;1.20;;;;;;;16.10;84.52;99791.59;10299158;28;97378;-79
2024/01/18 13:23:58;;;;;;;3.58;1.20;;;;;;;16.03;85.00;99783.19;10299181;28;96668;-79
2024/01/18 13:29:04;;;;;;;3.83;1.08;;;;;;;15.87;85.23;99774.63;10298854;28;96610;-78
2024/01/18 13:34:08;;;;;;;4.40;1.30;;;;;;;15.76;86.15;99772.69;10298870;28;96748;-80
2024/01/18 13:39:11;;;;;;;3.58;1.30;;;;;;;15.62;86.25;99764.81;10290055;28;97156;-81
2024/01/18 13:44:19;;;;;;;3.95;0.90;;;;;;;15.44;87.10;99762.56;10257570;28;96730;-80
2024/01/18 13:49:22;;;;;;;3.13;1.17;;;;;;;15.48;87.07;99762.25;10282503;28;97212;-80
2024/01/18 13:54:29;;;;;;;2.67;1.00;;;;;;;15.35;86.27;99766.69;10298224;28;97260;-80
2024/01/18 13:59:34;;;;;;;3.05;1.05;;;;;;;15.46;86.37;99753.53;10250796;28;96930;-80
2024/01/18 14:04:37;;;;;;;;;;;;;;;15.54;87.19;99748.59;10253219;28;97187;-80
2024/01/18 14:09:41;;;;;;;4.97;1.30;;;;;;;15.72;86.10;99754.41;10298234;28;96844;-80
2024/01/18 14:14:46;;;;;;;4.97;1.27;;;;;;;15.56;86.29;99757.25;10297135;28;96867;-80
2024/01/18 14:19:50;;;;;;;6.40;1.33;;;;;;;15.52;86.51;99741.69;10297644;28;96878;-80
2024/01/18 14:24:53;;;;;;;4.20;1.33;;;;;;;15.57;85.88;99744.88;10297014;28;96774;-80
2024/01/18 14:29:58;;;;;;;3.38;1.50;;;;;;;15.62;86.61;99743.59;10297316;28;96662;-79
2024/01/18 14:35:02;;;;;;;2.33;1.17;;;;;;;15.67;86.21;99741.47;10296985;28;97081;-80
2024/01/18 14:40:07;;;;;;;4.03;1.58;;;;;;;15.71;85.74;99739.47;10272097;28;97108;-80
2024/01/18 14:45:12;;;;;;;3.28;1.25;;;;;;;15.64;85.89;99736.41;10255520;28;96739;-79
2024/01/18 14:50:15;;;;;;;3.35;1.50;;;;;;;15.53;86.52;99730.09;10256058;28;97071;-79
2024/01/18 14:55:22;;;;;;;3.67;1.42;;;;;;;15.53;86.52;99728.31;10266236;28;97435;-79
2024/01/18 15:00:27;;;;;;;4.27;1.33;;;;;;;15.56;86.81;99720.13;10293341;28;96836;-79
2024/01/18 15:05:31;;;;;;;4.80;1.60;;;;;;;15.47;86.98;99726.09;10255289;28;96689;-79
2024/01/18 15:10:34;;;;;;;6.00;1.60;;;;;;;15.51;87.03;99722.25;10255367;28;96728;-79
2024/01/18 15:15:39;;;;;;;4.25;1.30;;;;;;;15.48;86.81;99726.91;10291686;28;97554;-79
2024/01/18 15:20:43;;;;;;;2.78;1.40;;;;;;;15.46;87.83;99715.56;10295903;28;97462;-78
2024/01/18 15:25:46;;;;;;;3.22;1.20;;;;;;;15.52;87.60;99705.41;10295761;28;97252;-79
2024/01/18 15:30:51;;;;;;;6.50;1.33;;;;;;;15.43;88.10;99713.13;10295669;28;97168;-78
2024/01/18 15:35:56;;;;;;;5.75;2.05;;;;;;;15.30;89.39;99723.69;10278876;28;96665;-78
2024/01/18 15:40:59;;;;;;;5.18;1.83;;;;;;;15.31;89.30;99740.47;10254647;28;96673;-78
2024/01/18 15:46:04;;;;;;;5.32;1.70;;;;;;;15.27;89.24;99747.78;10261316;28;97245;-78
2024/01/18 15:51:12;;;;;;;3.30;1.48;;;;;;;15.31;88.15;99749.28;10295234;28;96605;-79
2024/01/18 15:56:15;;;;;;;4.97;1.92;;;;;;;15.48;87.69;99735.72;10295145;28;96707;-78
2024/01/18 16:01:20;;;;;;;9.32;1.88;;;;;;;15.49;88.25;99732.09;10270462;28;97357;-78
2024/01/18 16:06:24;;;;;;;6.60;1.90;;;;;;;15.52;87.95;99736.38;10288573;28;97268;-78
2024/01/18 16:11:27;;;;;;;8.10;2.33;;;;;;;15.65;87.64;99724.81;10299225;28;96741;-78
2024/01/18 16:16:32;;;;;;;9.98;2.40;;;;;;;15.54;88.34;99718.56;10301155;28;96748;-78
2024/01/18 16:21:36;;;;;;;4.22;2.05;;;;;;;15.40;88.42;99694.78;10301741;28;97138;-78
2024/01/18 16:26:40;;;;;;;5.10;2.25;;;;;;;15.40;88.28;99677.06;10300941;28;96691;-78
2024/01/18 16:31:45;;;;;;;3.83;2.20;;;;;;;15.42;88.46;99672.53;10301317;28;97223;-78
2024/01/18 16:36:48;;;;;;;;;;;;;;;15.39;88.71;99679.84;10230529;28;96844;-78
2024/01/18 16:41:51;;;;;;;9.05;2.90;;;;;;;15.31;88.47;99692.75;10270885;28;97487;-78
2024/01/18 16:46:56;;;;;;;4.82;2.40;;;;;;;15.22;89.19;99702.13;10258973;28;96620;-78
2024/01/18 16:51:59;;;;;;;;;;;;;;;15.09;89.58;99706.56;10260351;28;96691;-78
2024/01/18 16:57:03;;;;;;;6.93;2.30;;;;;;;14.98;89.63;99727.63;10289710;28;96735;-78
2024/01/18 17:02:10;;;;;;;6.53;2.20;;;;;;;14.97;89.83;99718.00;10258066;28;97048;-78
2024/01/18 17:07:14;;;;;;;5.45;2.30;;;;;;;14.91;89.73;99705.13;10258826;28;96612;-78
2024/01/18 17:12:18;;;;;;;6.38;2.40;;;;;;;14.81;90.26;99727.88;10276716;28;97404;-78
2024/01/18 17:17:23;;;;;;;8.07;2.87;;;;;;;14.80;90.82;99726.16;10299742;28;96929;-78
2024/01/18 17:22:27;;;;;;;5.68;2.53;;;;;;;14.71;91.03;99737.38;10298909;28;96745;-78
2024/01/18 17:27:30;;;;;;;6.97;4.15;;;;;;;14.65;91.24;99729.81;10298185;28;96702;-78
2024/01/18 17:32:35;;;;;;;8.13;4.07;;;;;;;14.62;91.50;99722.94;10279689;28;96582;-78
2024/01/18 17:37:41;;;;;;;7.75;3.72;;;;;;;14.64;91.30;99736.06;10258197;28;96883;-78
2024/01/18 17:42:44;;;;;;;7.60;3.22;;;;;;;14.66;91.12;99748.25;10258243;28;97233;-79
2024/01/18 17:47:51;;;;;;;6.53;3.25;;;;;;;14.62;91.05;99756.50;10287111;28;97020;-78
2024/01/18 17:52:55;;;;;;;6.65;3.85;;;;;;;14.57;91.42;99761.25;10298333;28;96593;-78
2024/01/18 17:57:59;;;;;;;10.35;5.57;;;;;;;14.59;91.69;99765.47;10273251;28;96639;-79
2024/01/18 18:03:04;;;;;;;10.90;5.28;;;;;;;14.60;91.01;99780.44;10273202;28;97011;-78
2024/01/18 18:08:08;;;;;;;13.57;6.95;;;;;;;14.52;91.55;99790.63;10297365;28;97164;-78
2024/01/18 18:13:12;;;;;;;18.83;8.50;;;;;;;14.48;91.55;99789.16;10297418;28;97494;-78
2024/01/18 18:18:17;;;;;;;18.77;8.15;;;;;;;14.38;91.69;99789.81;10297016;28;96671;-78
2024/01/18 18:23:20;;;;;;;18.38;8.07;;;;;;;14.34;92.05;99791.81;10297489;28;96654;-78
2024/01/18 18:28:24;;;;;;;13.23;7.40;;;;;;;14.37;92.19;99791.59;10272445;28;96604;-78
2024/01/18 18:33:29;;;;;;;14.00;7.38;;;;;;;14.36;91.94;99786.41;10255980;28;97086;-79
2024/01/18 18:38:34;;;;;;;16.27;8.57;;;;;;;14.35;92.40;99797.97;10279935;28;97469;-78
2024/01/18 18:43:39;;;;;;;13.48;7.63;;;;;;;14.35;91.98;99790.84;10256171;28;96849;-78
2024/01/18 18:48:46;;;;;;;12.77;6.32;;;;;;;14.33;92.48;99781.31;10255232;28;96908;-78
2024/01/18 18:53:49;;;;;;;13.57;6.55;;;;;;;14.31;91.83;99769.97;10269354;28;96607;-78
2024/01/18 18:58:55;;;;;;;16.00;5.45;;;;;;;14.33;91.82;99778.66;10295898;28;96791;-79
2024/01/18 19:04:00;;;;;;;12.23;6.15;;;;;;;14.24;92.04;99771.28;10296557;28;96860;-79
2024/01/18 19:09:04;;;;;;;13.55;6.60;;;;;;;14.20;92.66;99767.13;10296058;28;96939;-79
2024/01/18 19:14:08;;;;;;;12.32;6.82;;;;;;;14.17;92.36;99754.97;10295272;28;96769;-79
2024/01/18 19:19:13;;;;;;;14.35;7.13;;;;;;;14.16;92.39;99758.53;10295600;28;97336;-79
2024/01/18 19:24:17;;;;;;;;;;;;;;;14.14;92.48;99772.81;10272231;28;96644;-79
2024/01/18 19:29:20;;;;;;;11.68;6.03;;;;;;;14.12;92.36;99772.91;10280963;28;97399;-79
2024/01/18 19:34:25;;;;;;;8.60;5.43;;;;;;;14.10;92.29;99777.44;10295267;28;96904;-79
2024/01/18 19:39:30;;;;;;;14.52;6.80;;;;;;;14.06;92.61;99775.91;10250347;28;97128;-79
2024/01/18 19:44:40;;;;;;;12.93;6.95;;;;;;;14.06;92.60;99786.50;10240953;28;97413;-79
2024/01/18 19:49:45;;;;;;;12.23;5.38;;;;;;;13.97;92.27;99765.88;10302436;28;96596;-79
2024/01/18 19:54:49;;;;;;;8.10;4.95;;;;;;;13.84;93.59;99758.78;10273000;28;97363;-78
2024/01/18 19:59:52;;;;;;;12.60;5.40;;;;;;;13.87;93.38;99759.44;10258907;28;96660;-79
2024/01/18 20:04:57;;;;;;;14.10;5.68;;;;;;;13.75;94.25;99756.69;10297999;28;96771;-78
2024/01/18 20:10:02;;;;;;;9.60;5.45;;;;;;;13.81;93.81;99767.75;10299816;28;96636;-79
2024/01/18 20:15:06;;;;;;;8.82;5.60;;;;;;;13.79;93.33;99755.56;10298329;28;96603;-79
2024/01/18 20:20:12;;;;;;;9.27;5.67;;;;;;;13.85;93.57;99742.81;10299298;28;97123;-79
2024/01/18 20:25:16;;;;;;;9.52;5.75;;;;;;;13.87;93.38;99740.91;10298867;28;97115;-79
2024/01/18 20:30:22;;;;;;;11.13;5.78;;;;;;;13.75;93.29;99743.47;10298863;28;96906;-79
2024/01/18 20:35:27;;;;;;;8.85;5.35;;;;;;;13.71;93.66;99756.00;10295842;28;96735;-79
2024/01/18 20:40:31;;;;;;;10.65;5.72;;;;;;;13.73;93.31;99774.44;10275132;28;97409;-79
2024/01/18 20:45:35;;;;;;;9.68;5.90;;;;;;;13.65;93.40;99791.63;10257408;28;97927;-78
2024/01/18 20:50:40;;;;;;;13.47;6.37;;;;;;;13.68;93.45;99786.16;10259022;28;96764;-79
2024/01/18 20:55:44;;;;;;;12.82;6.47;;;;;;;13.71;93.18;99806.25;10294547;28;96632;-79
2024/01/18 21:00:47;;;;;;;12.93;6.95;;;;;;;13.69;93.61;99803.69;10297943;28;96802;-78
2024/01/18 21:05:53;;;;;;;13.13;6.30;;;;;;;13.64;93.60;99808.41;10296946;28;97398;-79
2024/01/18 21:10:57;;;;;;;11.55;6.22;;;;;;;13.66;93.34;99814.47;10297464;28;96626;-79
2024/01/18 21:16:00;;;;;;;11.20;5.90;;;;;;;13.70;93.55;99812.50;10289955;28;97307;-79
2024/01/18 21:21:06;;;;;;;12.25;7.18;;;;;;;13.67;93.17;99795.00;10257077;28;96667;-78
2024/01/18 21:26:09;;;;;;;13.45;7.75;;;;;;;13.52;93.69;99803.84;10265022;28;97074;-78
2024/01/18 21:31:13;;;;;;;12.40;7.00;;;;;;;13.33;95.73;99789.13;10297341;28;96703;-78
2024/01/18 21:36:18;;;;;;;11.68;7.05;;;;;;;13.18;97.06;99759.19;10258737;28;96814;-78
2024/01/18 21:41:21;;;;;;;;;;;;;;;13.28;96.48;99784.13;10257488;28;97060;-78
2024/01/18 21:46:25;;;;;;;11.45;6.00;;;;;;;13.29;95.66;99764.69;10290303;28;96680;-79
2024/01/18 21:51:30;;;;;;;14.37;7.83;;;;;;;13.33;95.07;99757.44;10281958;28;96764;-79
2024/01/18 21:56:34;;;;;;;14.55;6.53;;;;;;;13.18;95.54;99748.63;10255026;28;96804;-79
2024/01/18 22:01:38;;;;;;;14.47;6.37;;;;;;;13.11;96.27;99741.13;10276301;28;96751;-80
2024/01/18 22:06:44;;;;;;;10.43;6.20;;;;;;;13.10;96.26;99744.72;10294953;28;97712;-79
2024/01/18 22:11:49;;;;;;;12.25;6.32;;;;;;;13.04;97.25;99751.22;10295620;28;96908;-79
2024/01/18 22:16:53;;;;;;;11.02;6.47;;;;;;;12.98;98.09;99756.84;10269965;28;96671;-79
2024/01/18 22:21:58;;;;;;;12.43;6.82;;;;;;;12.99;97.84;99757.69;10295456;28;96779;-79
2024/01/18 22:27:02;;;;;;;11.00;6.47;;;;;;;12.99;98.05;99757.69;10295394;28;96925;-79
2024/01/18 22:32:06;;;;;;;12.93;6.32;;;;;;;13.16;97.63;99753.16;10274187;28;97103;-80
2024/01/18 22:37:11;;;;;;;14.05;7.00;;;;;;;13.16;96.72;99761.06;10287072;28;96717;-79
2024/01/18 22:42:14;;;;;;;;;;;;;;;13.14;97.34;99760.31;10261880;28;96608;-79
2024/01/18 22:47:18;;;;;;;11.60;5.70;;;;;;;13.08;97.18;99770.38;10253045;28;97412;-79
2024/01/18 22:52:23;;;;;;;9.32;6.15;;;;;;;13.07;97.49;99771.34;10272291;28;96701;-79
2024/01/18 22:57:26;;;;;;;10.07;6.30;;;;;;;13.04;96.57;99756.50;10294747;28;97122;-79
2024/01/18 23:02:30;;;;;;;10.90;6.25;;;;;;;13.01;97.69;99745.25;10257004;28;96728;-79
2024/01/18 23:07:35;;;;;;;12.38;6.45;;;;;;;13.03;97.21;99731.03;10257263;28;96681;-79
2024/01/18 23:12:39;;;;;;;11.27;6.50;;;;;;;13.11;96.82;99736.72;10280010;28;96746;-79
2024/01/18 23:17:42;;;;;;;11.43;5.90;;;;;;;13.05;97.06;99739.69;10252747;28;96844;-80
2024/01/18 23:22:47;;;;;;;11.90;6.22;;;;;;;13.09;96.54;99743.00;10253933;28;97213;-79
2024/01/18 23:27:51;;;;;;;11.15;5.32;;;;;;;13.11;96.52;99742.00;10283179;28;97373;-79
2024/01/18 23:32:54;;;;;;;14.65;6.43;;;;;;;13.09;96.39;99743.88;10258835;28;97421;-79
2024/01/18 23:38:00;;;;;;;13.43;6.18;;;;;;;13.01;96.62;99739.97;10252144;28;96552;-79
2024/01/18 23:43:03;;;;;;;12.85;6.63;;;;;;;12.99;97.00;99726.84;10268466;28;96778;-79
2024/01/18 23:48:07;;;;;;;15.90;7.68;;;;;;;12.94;97.08;99715.72;10277816;28;96626;-79